Time;durP1;ratioP1;P1;durP2;ratioP2;P2;SDS_P1;SDS_P2;PMS_P1;PMS_P2;Temp;Humidity;BMP_temperature;BMP_pressure;BME280_temperature;BME280_humidity;BME280_pressure;Samples;Min_cycle;Max_cycle;Signal;HPM_P1;HPM_P2
2023/04/22 00:01:39;;;;;;;;;;;15.20;42.00;;;14.29;43.49;101189.22;12256558;19;19978;-84
2023/04/22 00:05:43;;;;;;;;;;;15.20;42.00;;;14.13;43.45;101160.47;12258121;19;19922;-84
2023/04/22 00:09:45;;;;;;;;;;;15.20;42.00;;;14.12;43.59;101166.66;12252139;19;19914;-84
2023/04/22 00:13:46;;;;;;;;;;;15.20;42.00;;;13.91;43.58;101136.50;12256000;19;19915;-84
2023/04/22 00:17:48;;;;;;;;;;;15.10;42.00;;;14.01;43.44;101153.34;12254736;19;19915;-84
2023/04/22 00:21:49;;;;;;;;;;;15.00;41.90;;;13.99;43.49;101165.75;12256975;19;19929;-84
2023/04/22 00:25:51;;;;;;;;;;;15.00;42.00;;;13.87;43.77;101145.50;12256386;19;19930;-85
2023/04/22 00:29:52;;;;;;;;;;;14.90;42.10;;;13.61;43.49;101111.22;12250480;19;19994;-84
2023/04/22 00:33:54;;;;;;;;;;;14.80;42.40;;;13.82;43.62;101150.19;12254865;19;19927;-85
2023/04/22 00:37:56;;;;;;;;;;;14.80;42.10;;;13.77;43.64;101139.13;12253173;19;19917;-84
2023/04/22 00:41:59;;;;;;;;;;;14.70;42.20;;;13.70;43.65;101141.28;12257090;19;19919;-84
2023/04/22 00:46:01;;;;;;;;;;;14.70;42.30;;;13.43;43.68;101099.22;12253934;19;19925;-85
2023/04/22 00:50:03;;;;;;;;;;;14.70;42.30;;;13.60;43.78;101142.78;12250196;19;19933;-84
2023/04/22 00:54:05;;;;;;;;;;;14.60;42.20;;;13.36;43.70;101103.16;12255611;19;19915;-84
2023/04/22 00:58:06;;;;;;;;;;;14.60;42.30;;;13.37;43.81;101112.72;12251655;19;19930;-85
2023/04/22 01:02:08;;;;;;;;;;;14.50;42.30;;;13.23;43.72;101100.38;12254502;19;19982;-84
2023/04/22 01:06:10;;;;;;;;;;;14.40;42.40;;;13.32;43.85;101125.28;12253384;19;19926;-84
2023/04/22 01:10:12;;;;;;;;;;;14.40;42.30;;;13.19;43.87;101107.59;12252828;19;19907;-85
2023/04/22 01:14:14;;;;;;;;;;;14.30;42.30;;;13.19;43.98;101128.59;12254265;19;19919;-84
2023/04/22 01:18:16;;;;;;;;;;;14.20;42.30;;;13.03;43.89;101112.06;12251127;19;19940;-84
2023/04/22 01:22:17;;;;;;;;;;;14.10;42.30;;;13.02;44.01;101119.09;12251883;19;19918;-84
2023/04/22 01:26:19;;;;;;;;;;;14.10;42.40;;;13.00;44.05;101114.88;12249518;19;19918;-84
2023/04/22 01:30:21;;;;;;;;;;;14.00;42.80;;;13.00;43.99;101112.25;12249887;19;19982;-84
2023/04/22 01:34:23;;;;;;;;;;;14.00;42.50;;;13.00;44.01;101130.63;12252079;19;19907;-84
2023/04/22 01:38:25;;;;;;;;;;;14.00;42.50;;;12.70;44.13;101081.69;12247891;19;19970;-84
2023/04/22 01:42:27;;;;;;;;;;;13.90;42.50;;;12.90;44.17;101124.22;12250023;19;19919;-84
2023/04/22 01:46:29;;;;;;;;;;;13.90;42.60;;;12.79;44.02;101103.88;12248206;19;20288;-84
2023/04/22 01:50:30;;;;;;;;;;;13.90;42.60;;;12.80;44.15;101116.06;12244323;19;19923;-84
2023/04/22 01:54:32;;;;;;;;;;;13.80;42.50;;;12.66;44.02;101097.66;12249450;19;19911;-84
2023/04/22 01:58:34;;;;;;;;;;;13.80;42.50;;;12.42;44.01;101068.47;12246744;19;19939;-84
2023/04/22 02:02:39;;;;;;;;;;;13.70;42.50;;;12.45;44.18;101074.41;12249736;19;20372;-84
2023/04/22 02:06:40;;;;;;;;;;;13.70;42.50;;;12.38;44.25;101079.13;12247773;19;20389;-85
2023/04/22 02:10:42;;;;;;;;;;;13.60;42.60;;;12.28;44.18;101064.88;12248021;19;19948;-84
2023/04/22 02:14:43;;;;;;;;;;;13.50;42.60;;;12.14;44.19;101064.81;12249425;19;19926;-84
2023/04/22 02:18:45;;;;;;;;;;;13.40;42.60;;;12.21;44.22;101091.50;12247311;19;20334;-84
2023/04/22 02:22:47;;;;;;;;;;;13.30;42.60;;;11.89;44.40;101037.41;12249977;19;19914;-84
2023/04/22 02:26:49;;;;;;;;;;;13.30;42.70;;;11.97;44.44;101068.38;12248777;19;20335;-84
2023/04/22 02:30:51;;;;;;;;;;;13.20;42.70;;;12.02;44.37;101084.69;12247180;19;20442;-84
2023/04/22 02:34:53;;;;;;;;;;;13.10;42.70;;;11.95;44.39;101086.78;12250735;19;20251;-84
2023/04/22 02:38:55;;;;;;;;;;;13.10;42.80;;;11.85;44.39;101053.31;12243421;19;20335;-84
2023/04/22 02:42:56;;;;;;;;;;;13.00;42.80;;;11.84;44.42;101062.09;12249695;19;19915;-85
2023/04/22 02:46:58;;;;;;;;;;;13.00;43.00;;;11.86;44.57;101068.13;12246540;19;19910;-84
2023/04/22 02:51:00;;;;;;;;;;;12.90;42.90;;;11.82;44.41;101061.34;12245767;19;19922;-84
2023/04/22 02:55:01;;;;;;;;;;;12.90;42.90;;;11.84;44.51;101070.78;12248136;19;19914;-84
2023/04/22 02:59:03;;;;;;;;;;;12.90;42.90;;;11.77;44.49;101064.19;12245270;19;19919;-85
2023/04/22 03:03:04;;;;;;;;;;;12.90;43.00;;;11.79;44.66;101064.13;12248558;19;19924;-84
2023/04/22 03:07:09;;;;;;;;;;;12.80;42.90;;;11.69;44.59;101053.31;12246774;19;19943;-84
2023/04/22 03:11:10;;;;;;;;;;;12.90;43.00;;;11.39;44.79;101006.97;12243362;19;19919;-84
2023/04/22 03:15:12;;;;;;;;;;;12.80;43.00;;;11.41;44.52;101012.13;12245505;19;19925;-85
2023/04/22 03:19:15;;;;;;;;;;;12.80;43.00;;;11.65;44.59;101060.50;12242245;19;20322;-85
2023/04/22 03:23:16;;;;;;;;;;;12.80;42.90;;;11.56;44.63;101047.06;12246833;19;19925;-85
2023/04/22 03:27:18;;;;;;;;;;;12.80;43.00;;;11.44;44.77;101032.88;12244420;19;20333;-85
2023/04/22 03:31:20;;;;;;;;;;;12.70;42.90;;;11.47;44.70;101038.78;12245011;19;20329;-84
2023/04/22 03:35:22;;;;;;;;;;;12.70;42.90;;;11.38;44.85;101035.84;12244682;19;19915;-85
2023/04/22 03:39:25;;;;;;;;;;;12.60;42.90;;;11.31;44.96;101030.06;12241334;19;19925;-84
2023/04/22 03:43:27;;;;;;;;;;;12.60;43.00;;;11.31;44.91;101030.06;12243738;19;20333;-85
2023/04/22 03:47:38;;;;;;;;;;;12.50;43.00;;;11.29;44.70;101035.41;12243358;19;19923;-84
2023/04/22 03:51:50;;;;;;;;;;;12.50;43.00;;;11.40;45.03;101060.97;12253612;19;19918;-84
2023/04/22 03:55:56;;;;;;;;;;;12.50;43.10;;;11.33;44.93;101043.91;12256793;19;19926;-84
2023/04/22 03:59:58;;;;;;;;;;;12.50;43.10;;;11.39;44.96;101055.81;12251548;19;19926;-85
2023/04/22 04:04:01;;;;;;;;;;;12.50;43.10;;;11.33;44.99;101051.75;12257058;19;19967;-84
2023/04/22 04:08:11;;;;;;;;;;;12.50;43.10;;;11.28;44.83;101054.59;12253787;19;19919;-84
2023/04/22 04:12:12;;;;;;;;;;;12.50;43.10;;;11.15;44.92;101039.66;12254345;19;19914;-84
2023/04/22 04:16:17;;;;;;;;;;;12.40;43.10;;;11.15;45.02;101043.13;12256723;19;19913;-84
2023/04/22 04:20:24;;;;;;;;;;;12.40;43.20;;;11.17;45.01;101046.47;12255104;19;19923;-84
2023/04/22 04:24:27;;;;;;;;;;;12.30;43.20;;;11.05;45.22;101044.53;12254190;19;19962;-84
2023/04/22 04:28:35;;;;;;;;;;;12.40;43.20;;;11.14;45.02;101051.88;12251524;19;19923;-84
2023/04/22 04:32:37;;;;;;;;;;;12.30;43.20;;;10.89;45.19;101013.13;12251695;19;19957;-85
2023/04/22 04:36:42;;;;;;;;;;;12.30;43.30;;;11.08;45.07;101055.66;12254878;19;20361;-84
2023/04/22 04:40:53;;;;;;;;;;;12.30;43.20;;;11.04;45.22;101062.00;12254499;19;19923;-83
2023/04/22 04:44:58;;;;;;;;;;;12.30;43.20;;;10.98;45.08;101040.53;12254420;19;19986;-84
2023/04/22 04:49:03;;;;;;;;;;;12.30;43.40;;;10.85;45.50;101016.81;12250869;19;20292;-84
2023/04/22 04:53:10;;;;;;;;;;;12.30;43.30;;;11.10;45.16;101065.19;12250085;19;19922;-84
2023/04/22 04:57:15;;;;;;;;;;;12.30;43.40;;;11.16;45.42;101063.09;12250300;19;19919;-85
2023/04/22 05:01:17;;;;;;;;;;;12.30;43.60;;;11.14;45.32;101062.34;12249229;19;19923;-85
2023/04/22 05:05:21;;;;;;;;;;;12.30;43.60;;;11.23;45.47;101066.22;12252221;19;19907;-85
2023/04/22 05:09:23;;;;;;;;;;;12.40;43.60;;;11.23;45.54;101051.41;12249673;19;19914;-85
2023/04/22 05:13:27;;;;;;;;;;;12.50;43.60;;;11.25;45.51;101048.69;12247800;19;19911;-85
2023/04/22 05:17:29;;;;;;;;;;;12.50;43.60;;;11.08;45.37;101016.44;12246540;19;19914;-85
2023/04/22 05:21:31;;;;;;;;;;;12.60;43.70;;;11.33;45.54;101053.53;12250049;19;19991;-84
2023/04/22 05:25:34;;;;;;;;;;;12.60;43.60;;;11.34;45.63;101045.63;12249842;19;20016;-85
2023/04/22 05:29:41;;;;;;;;;;;12.70;43.60;;;11.49;45.70;101064.84;12247715;19;19918;-85
2023/04/22 05:33:43;;;;;;;;;;;12.80;43.80;;;11.59;45.66;101073.06;12244845;19;20390;-86
2023/04/22 05:37:44;;;;;;;;;;;12.80;43.70;;;11.65;45.67;101067.50;12248440;19;19921;-85
2023/04/22 05:41:46;;;;;;;;;;;12.90;43.70;;;11.71;45.71;101069.78;12250537;19;19929;-85
2023/04/22 05:45:47;;;;;;;;;;;12.90;43.60;;;11.69;45.68;101053.31;12250921;19;19925;-85
2023/04/22 05:49:50;;;;;;;;;;;13.00;43.70;;;11.74;45.67;101051.28;12247063;19;19918;-84
2023/04/22 05:54:01;;;;;;;;;;;13.10;43.80;;;11.70;45.63;101029.69;12250937;19;19927;-86
2023/04/22 05:58:02;;;;;;;;;;;13.20;44.00;;;11.85;45.81;101041.06;12247530;19;19907;-83
2023/04/22 06:02:17;;;;;;;;;;;13.30;43.90;;;12.11;45.79;101055.34;12245496;19;19915;-84
2023/04/22 06:06:19;;;;;;;;;;;13.40;44.00;;;12.25;45.86;101046.72;12246577;19;20285;-84
2023/04/22 06:10:22;;;;;;;;;;;13.60;43.90;;;12.46;45.88;101056.91;12246023;19;19990;-84
2023/04/22 06:14:24;;;;;;;;;;;13.70;44.10;;;12.60;45.89;101042.06;12248412;19;20346;-84
2023/04/22 06:18:25;;;;;;;;;;;13.80;44.20;;;12.51;45.91;101015.56;12246823;19;19955;-84
2023/04/22 06:22:27;;;;;;;;;;;14.00;43.90;;;12.83;45.86;101042.50;12249484;19;20341;-84
2023/04/22 06:26:29;;;;;;;;;;;14.20;43.90;;;13.07;45.94;101059.38;12248302;19;19938;-83
2023/04/22 06:30:31;;;;;;;;;;;14.40;43.90;;;13.22;45.93;101054.97;12249303;19;19970;-85
2023/04/22 06:34:32;;;;;;;;;;;14.50;43.70;;;13.30;45.82;101043.19;12249193;19;19966;-84
2023/04/22 06:38:34;;;;;;;;;;;14.70;43.60;;;13.46;45.97;101041.31;12246892;19;19919;-84
2023/04/22 06:43:02;;;;;;;;;;;14.80;43.60;;;13.64;45.90;101060.31;12245572;19;19907;-84
2023/04/22 06:47:36;;;;;;;;;;;15.00;43.60;;;13.74;45.91;101053.53;12244388;19;19930;-85
2023/04/22 06:51:44;;;;;;;;;;;15.10;43.40;;;13.79;45.83;101027.00;12245077;19;20344;-85
2023/04/22 06:55:46;;;;;;;;;;;15.30;43.40;;;14.02;45.88;101049.19;12237681;19;19931;-85
2023/04/22 06:59:48;;;;;;;;;;;15.40;43.40;;;14.11;45.85;101044.16;12236343;19;19931;-85
2023/04/22 07:03:50;;;;;;;;;;;15.70;43.40;;;14.24;45.95;101044.19;12246163;19;19922;-85
2023/04/22 07:07:51;;;;;;;;;;;15.70;43.40;;;14.08;45.75;100996.25;12243570;19;19978;-85
2023/04/22 07:11:58;;;;;;;;;;;15.80;43.30;;;14.49;45.92;101048.66;12242689;19;19946;-85
2023/04/22 07:16:01;;;;;;;;;;;15.90;43.30;;;14.65;45.87;101047.69;12244543;19;19929;-85
2023/04/22 07:20:04;;;;;;;;;;;16.10;43.30;;;14.70;45.70;101035.09;12229473;19;19951;-85
2023/04/22 07:24:05;;;;;;;;;;;16.10;43.20;;;14.94;45.74;101050.97;12243938;19;19951;-85
2023/04/22 07:28:07;;;;;;;;;;;16.30;43.30;;;15.00;45.82;101043.50;12250206;19;19914;-85
2023/04/22 07:32:09;;;;;;;;;;;16.40;43.30;;;14.98;45.80;101015.63;12252938;19;19933;-86
2023/04/22 07:36:11;;;;;;;;;;;16.60;43.40;;;15.39;45.88;101053.97;12257689;19;20281;-86
2023/04/22 07:40:12;;;;;;;;;;;16.80;43.50;;;15.60;46.05;101051.63;12255342;19;20334;-86
2023/04/22 07:44:17;;;;;;;;;;;16.90;43.40;;;15.70;45.93;101037.75;12248927;19;19923;-85
2023/04/22 07:48:18;;;;;;;;;;;17.10;43.40;;;15.49;46.04;100960.28;12215033;19;19918;-85
2023/04/22 07:52:21;;;;;;;;;;;17.40;43.40;;;16.26;46.10;101039.00;12242631;19;19927;-86
2023/04/22 07:56:25;;;;;;;;;;;17.60;43.60;;;16.16;46.20;100975.59;12241335;19;19972;-85
2023/04/22 08:00:29;;;;;;;;;;;17.90;43.70;;;16.65;45.96;101015.84;12249116;19;19919;-86
2023/04/22 08:04:41;;;;;;;;;;;18.10;43.40;;;16.60;46.21;100966.94;12246762;19;19942;-85
2023/04/22 08:08:45;;;;;;;;;;;18.50;43.70;;;16.87;46.18;100957.88;12253080;19;19986;-85
2023/04/22 08:12:49;;;;;;;;;;;18.60;43.70;;;17.05;46.09;100958.25;12251724;19;20337;-86
2023/04/22 08:16:53;;;;;;;;;;;18.80;43.70;;;17.23;46.06;100935.69;12255458;19;19931;-86
2023/04/22 08:20:55;;;;;;;;;;;19.10;43.20;;;17.86;46.18;100996.66;12256208;19;19950;-86
2023/04/22 08:24:58;;;;;;;;;;;19.40;43.40;;;17.96;45.82;100965.03;12256391;19;19930;-85
2023/04/22 08:29:00;;;;;;;;;;;19.60;42.20;;;18.38;46.07;100985.38;12254592;19;19914;-85
2023/04/22 08:33:01;;;;;;;;;;;19.90;42.70;;;18.57;45.64;100978.38;12247555;19;19930;-86
2023/04/22 08:37:03;;;;;;;;;;;20.10;41.60;;;18.86;45.63;100990.97;12250719;19;19934;-86
2023/04/22 08:41:06;;;;;;;;;;;20.40;41.80;;;18.96;45.86;100975.16;12254141;19;19939;-86
2023/04/22 08:45:08;;;;;;;;;;;20.50;42.30;;;19.35;45.91;100996.47;12252433;19;20397;-87
2023/04/22 08:49:10;;;;;;;;;;;20.80;42.30;;;19.51;45.76;100988.84;12253125;19;19907;-86
2023/04/22 08:53:13;;;;;;;;;;;21.00;41.40;;;19.71;45.44;100987.06;12249192;19;19918;-87
2023/04/22 08:57:16;;;;;;;;;;;21.20;40.40;;;19.93;45.43;100985.13;12254471;19;19911;-86
2023/04/22 09:01:18;;;;;;;;;;;21.40;41.10;;;20.05;45.04;100973.44;12253059;19;20282;-85
2023/04/22 09:05:21;;;;;;;;;;;21.60;39.50;;;20.36;45.02;100994.47;12253752;19;20348;-86
2023/04/22 09:09:23;;;;;;;;;;;21.80;40.20;;;20.55;44.81;100989.19;12253989;19;19919;-86
2023/04/22 09:13:26;;;;;;;;;;;22.00;40.80;;;20.73;44.83;100982.13;12250992;19;19987;-86
2023/04/22 09:17:32;;;;;;;;;;;22.10;41.10;;;20.86;45.28;100967.72;12248964;19;19922;-86
2023/04/22 09:21:34;;;;;;;;;;;22.40;40.00;;;21.08;45.06;100972.63;12254940;19;19932;-86
2023/04/22 09:25:37;;;;;;;;;;;22.60;40.60;;;21.14;45.10;100949.97;12251307;19;20277;-86
2023/04/22 09:29:46;;;;;;;;;;;22.70;40.30;;;21.19;44.82;100926.44;12247451;19;19922;-85
2023/04/22 09:33:54;;;;;;;;;;;22.90;40.20;;;21.56;45.26;100955.63;12238395;19;20045;-86
2023/04/22 09:37:57;;;;;;;;;;;23.00;40.70;;;21.46;44.92;100912.31;12237342;19;19939;-86
2023/04/22 09:41:59;;;;;;;;;;;23.30;40.10;;;21.56;45.08;100891.00;12241926;19;19935;-86
2023/04/22 09:46:02;;;;;;;;;;;23.40;40.80;;;21.77;44.88;100896.00;12244801;19;19935;-86
2023/04/22 09:50:05;;;;;;;;;;;23.50;40.80;;;22.09;44.72;100920.19;12247524;19;19922;-87
2023/04/22 09:54:09;;;;;;;;;;;23.70;39.20;;;22.31;44.52;100928.69;12249144;19;19919;-86
2023/04/22 09:58:13;;;;;;;;;;;23.90;38.40;;;22.24;44.35;100895.72;12246516;19;19928;-86
2023/04/22 10:02:14;;;;;;;;;;;24.00;39.40;;;22.26;44.23;100875.13;12249271;19;19914;-86
2023/04/22 10:06:20;;;;;;;;;;;24.10;38.20;;;22.48;44.27;100897.69;12247795;19;19922;-86
2023/04/22 10:10:23;;;;;;;;;;;24.10;38.90;;;22.60;44.29;100898.25;12250636;19;19922;-87
2023/04/22 10:14:25;;;;;;;;;;;24.20;36.80;;;22.47;43.72;100864.09;12249772;19;19911;-86
2023/04/22 10:18:28;;;;;;;;;;;24.20;37.60;;;22.73;43.70;100885.31;12249117;19;20266;-86
2023/04/22 10:22:34;;;;;;;;;;;24.30;39.50;;;22.75;43.73;100862.88;12248872;19;19926;-86
2023/04/22 10:26:48;;;;;;;;;;;24.40;36.40;;;23.06;43.67;100893.47;12246630;19;19978;-87
2023/04/22 10:30:49;;;;;;;;;;;24.50;37.30;;;23.09;43.71;100879.84;12244198;19;20297;-87
2023/04/22 10:35:09;;;;;;;;;;;24.60;39.40;;;23.25;43.64;100874.53;12245870;19;19925;-86
2023/04/22 10:39:15;;;;;;;;;;;24.60;36.60;;;23.41;43.33;100887.91;12252075;19;19919;-87
2023/04/22 10:43:18;;;;;;;;;;;24.70;36.90;;;23.55;43.06;100898.91;12243261;19;20269;-86
2023/04/22 10:47:30;;;;;;;;;;;24.80;34.40;;;23.37;42.63;100859.06;12246237;19;20274;-86
2023/04/22 10:51:39;;;;;;;;;;;24.90;36.20;;;23.67;42.69;100875.41;12247349;19;19926;-86
2023/04/22 10:55:51;;;;;;;;;;;25.00;36.50;;;23.75;42.26;100865.59;12248071;19;20268;-86
2023/04/22 10:59:56;;;;;;;;;;;25.10;35.70;;;23.74;42.05;100857.78;12246739;19;19915;-85
2023/04/22 11:04:19;;;;;;;;;;;25.10;35.10;;;23.86;42.21;100885.75;12246942;19;20281;-86
2023/04/22 11:08:22;;;;;;;;;;;25.10;32.00;;;23.82;41.73;100858.59;12244529;19;19922;-86
2023/04/22 11:12:40;;;;;;;;;;;25.10;33.60;;;23.96;41.97;100861.59;12246700;19;19926;-86
2023/04/22 11:16:46;;;;;;;;;;;25.20;34.60;;;24.03;41.66;100851.88;12245408;19;19915;-86
2023/04/22 11:20:49;;;;;;;;;;;25.20;36.80;;;24.10;41.84;100855.56;12247140;19;19932;-88
2023/04/22 11:24:54;;;;;;;;;;;25.30;33.30;;;24.20;41.66;100847.38;12248128;19;20314;-86
2023/04/22 11:28:59;;;;;;;;;;;25.40;36.60;;;24.21;41.20;100833.84;12248192;19;19915;-85
2023/04/22 11:33:01;;;;;;;;;;;25.40;35.30;;;24.25;41.57;100829.84;12242340;19;19930;-88
2023/04/22 11:37:02;;;;;;;;;;;25.50;34.80;;;24.39;41.16;100830.13;12241425;19;19919;-86
2023/04/22 11:41:04;;;;;;;;;;;25.60;37.60;;;24.53;41.22;100837.44;12244197;19;19931;-86
2023/04/22 11:45:07;;;;;;;;;;;25.70;36.50;;;24.44;41.28;100790.44;12247385;19;19911;-87
2023/04/22 11:49:15;;;;;;;;;;;25.80;35.00;;;24.64;41.33;100813.03;12244421;19;20395;-86
2023/04/22 11:53:22;;;;;;;;;;;25.90;35.80;;;24.75;40.91;100822.47;12245077;19;19918;-84
2023/04/22 11:57:25;;;;;;;;;;;25.90;35.70;;;24.72;41.11;100812.97;12242944;19;19924;-85
2023/04/22 12:01:28;;;;;;;;;;;26.00;37.10;;;24.75;40.82;100808.31;12248222;19;19921;-86
2023/04/22 12:05:45;;;;;;;;;;;26.00;35.70;;;24.89;40.59;100823.56;12244654;19;19921;-85
2023/04/22 12:09:48;;;;;;;;;;;26.10;36.40;;;24.81;40.71;100803.06;12250977;19;19926;-85
2023/04/22 12:13:50;;;;;;;;;;;26.10;33.50;;;24.89;40.67;100816.38;12251191;19;20329;-85
2023/04/22 12:17:52;;;;;;;;;;;26.10;31.70;;;24.90;40.06;100796.69;12254812;19;19915;-86
2023/04/22 12:21:55;;;;;;;;;;;26.10;34.70;;;24.97;40.46;100796.81;12255915;19;19921;-85
2023/04/22 12:25:57;;;;;;;;;;;26.10;32.80;;;25.01;39.97;100794.63;12256301;19;20252;-85
2023/04/22 12:29:58;;;;;;;;;;;26.20;33.90;;;25.02;39.64;100786.41;12256592;19;20341;-85
2023/04/22 12:34:00;;;;;;;;;;;26.20;34.70;;;25.02;39.84;100794.44;12251618;19;19911;-86
2023/04/22 12:38:02;;;;;;;;;;;26.20;32.60;;;24.98;39.28;100787.78;12251156;19;19918;-86
2023/04/22 12:42:05;;;;;;;;;;;26.20;34.80;;;24.94;39.64;100771.28;12251240;19;19923;-85
2023/04/22 12:46:07;;;;;;;;;;;26.20;34.70;;;25.13;39.55;100788.66;12255466;19;19903;-86
2023/04/22 12:50:09;;;;;;;;;;;26.20;33.90;;;24.95;39.20;100740.88;12256368;19;19919;-85
2023/04/22 12:54:11;;;;;;;;;;;26.20;34.40;;;25.08;39.31;100758.97;12251471;19;19907;-88
2023/04/22 12:58:13;;;;;;;;;;;26.30;34.60;;;25.00;39.18;100737.66;12253831;19;20242;-88
2023/04/22 13:02:14;;;;;;;;;;;26.30;33.90;;;25.24;39.20;100766.06;12255854;19;20345;-87
2023/04/22 13:06:16;;;;;;;;;;;26.30;33.10;;;25.26;39.06;100763.22;12252672;19;19930;-86
2023/04/22 13:10:18;;;;;;;;;;;26.40;31.80;;;25.24;39.08;100741.19;12257046;19;19943;-87
2023/04/22 13:14:20;;;;;;;;;;;26.40;35.20;;;25.34;39.11;100750.63;12258058;19;19922;-87
2023/04/22 13:18:22;;;;;;;;;;;26.50;32.70;;;25.35;38.98;100738.91;12252230;19;19911;-88
2023/04/22 13:22:23;;;;;;;;;;;26.40;34.70;;;25.36;38.55;100721.03;12253391;19;19967;-86
2023/04/22 13:26:25;;;;;;;;;;;26.50;35.90;;;25.44;38.72;100726.31;12250458;19;19957;-87
2023/04/22 13:30:26;;;;;;;;;;;26.60;36.10;;;25.47;38.58;100701.03;12255348;19;19911;-87
2023/04/22 13:34:27;;;;;;;;;;;26.60;36.00;;;25.58;38.96;100719.31;12255233;19;20282;-86
2023/04/22 13:38:30;;;;;;;;;;;26.70;28.40;;;25.65;38.57;100735.44;12248311;19;19918;-86
2023/04/22 13:42:31;;;;;;;;;;;26.70;32.70;;;25.66;38.27;100721.06;12248029;19;19923;-86
2023/04/22 13:46:32;;;;;;;;;;;26.70;31.20;;;25.65;38.32;100719.41;12245901;19;19915;-85
2023/04/22 13:50:34;;;;;;;;;;;26.70;32.60;;;25.67;38.20;100717.38;12242593;19;19951;-86
2023/04/22 13:54:35;;;;;;;;;;;26.70;30.60;;;25.67;38.01;100702.16;12251947;19;19915;-86
2023/04/22 13:58:39;;;;;;;;;;;26.70;32.60;;;25.47;37.99;100676.97;12250496;19;19919;-86
2023/04/22 14:02:40;;;;;;;;;;;26.70;33.60;;;25.71;38.13;100706.13;12250370;19;20391;-87
2023/04/22 14:06:42;;;;;;;;;;;26.70;33.00;;;25.73;37.78;100695.22;12245393;19;19974;-86
2023/04/22 14:10:43;;;;;;;;;;;26.70;34.80;;;25.73;37.84;100687.19;12246680;19;19987;-86
2023/04/22 14:14:45;;;;;;;;;;;26.80;32.10;;;25.73;37.85;100680.00;12251256;19;19915;-87
2023/04/22 14:18:46;;;;;;;;;;;26.80;32.70;;;25.77;37.51;100683.16;12251341;19;19986;-86
2023/04/22 14:22:48;;;;;;;;;;;26.80;33.90;;;25.74;37.50;100667.47;12249167;19;19923;-86
2023/04/22 14:26:53;;;;;;;;;;;26.80;32.10;;;25.81;37.38;100673.72;12245877;19;19943;-86
2023/04/22 14:30:55;;;;;;;;;;;26.80;34.10;;;25.81;37.23;100663.03;12250595;19;19915;-86
2023/04/22 14:34:56;;;;;;;;;;;26.80;30.60;;;25.82;37.24;100662.84;12248969;19;19914;-87
2023/04/22 14:38:58;;;;;;;;;;;26.80;33.70;;;25.72;37.25;100635.56;12249310;19;19934;-86
2023/04/22 14:43:00;;;;;;;;;;;26.90;35.00;;;25.79;37.01;100649.03;12248672;19;19907;-87
2023/04/22 14:47:02;;;;;;;;;;;26.90;34.30;;;25.73;37.39;100633.69;12244222;19;19915;-86
2023/04/22 14:51:03;;;;;;;;;;;26.80;34.50;;;25.67;37.13;100631.78;12246852;19;19926;-86
2023/04/22 14:55:05;;;;;;;;;;;26.80;30.50;;;25.66;37.05;100628.28;12241051;19;19919;-86
2023/04/22 14:59:06;;;;;;;;;;;26.80;32.80;;;25.71;36.97;100627.72;12241201;19;19919;-86
2023/04/22 15:03:08;;;;;;;;;;;26.70;34.00;;;25.83;37.21;100644.94;12241784;19;19924;-86
2023/04/22 15:07:09;;;;;;;;;;;26.70;32.40;;;25.79;37.10;100630.31;12243167;19;19927;-86
2023/04/22 15:11:11;;;;;;;;;;;26.80;29.90;;;25.78;37.04;100623.28;12244789;19;19947;-86
2023/04/22 15:15:14;;;;;;;;;;;26.80;32.80;;;25.87;36.86;100627.56;12244544;19;20472;-85
2023/04/22 15:19:16;;;;;;;;;;;26.80;34.80;;;25.85;36.74;100612.69;12244448;19;19918;-85
2023/04/22 15:23:18;;;;;;;;;;;26.80;32.60;;;25.91;36.46;100611.94;12244262;19;19922;-86
2023/04/22 15:27:19;;;;;;;;;;;26.80;33.80;;;25.84;36.58;100609.16;12240664;19;19919;-86
2023/04/22 15:31:21;;;;;;;;;;;26.80;32.90;;;25.81;36.28;100615.69;12243383;19;20002;-86
2023/04/22 15:35:22;;;;;;;;;;;26.80;33.20;;;25.74;36.18;100595.25;12245115;19;19918;-85
2023/04/22 15:39:24;;;;;;;;;;;26.80;33.00;;;25.82;36.56;100627.25;12242276;19;19939;-86
2023/04/22 15:43:26;;;;;;;;;;;26.70;31.50;;;25.80;36.16;100615.91;12243829;19;19934;-86
2023/04/22 15:47:28;;;;;;;;;;;26.70;32.70;;;25.76;36.10;100611.91;12252248;19;19915;-85
2023/04/22 15:51:30;;;;;;;;;;;26.70;28.90;;;25.70;35.88;100599.31;12254182;19;19922;-85
2023/04/22 15:55:31;;;;;;;;;;;26.70;28.80;;;25.70;35.75;100605.47;12255597;19;19923;-85
2023/04/22 15:59:33;;;;;;;;;;;26.60;32.70;;;25.58;35.86;100574.88;12256330;19;19923;-85
2023/04/22 16:03:34;;;;;;;;;;;26.60;33.10;;;25.67;35.98;100597.00;12255519;19;19918;-86
2023/04/22 16:07:36;;;;;;;;;;;26.60;31.00;;;25.63;35.81;100590.34;12249763;19;19919;-85
2023/04/22 16:11:37;;;;;;;;;;;26.50;32.00;;;25.64;35.78;100586.69;12253452;19;19935;-86
2023/04/22 16:15:39;;;;;;;;;;;26.50;32.30;;;25.30;35.74;100532.78;12255553;19;19919;-85
2023/04/22 16:19:40;;;;;;;;;;;26.50;32.80;;;25.56;35.68;100576.91;12255616;19;19915;-85
2023/04/22 16:23:43;;;;;;;;;;;26.50;33.60;;;25.55;35.57;100569.91;12254627;19;20014;-85
2023/04/22 16:27:45;;;;;;;;;;;26.50;31.60;;;25.47;35.97;100549.44;12252610;19;19923;-85
2023/04/22 16:31:47;;;;;;;;;;;26.40;33.40;;;25.44;35.73;100552.50;12253360;19;19911;-86
2023/04/22 16:35:48;;;;;;;;;;;26.40;32.40;;;25.39;35.93;100558.41;12255210;19;19923;-85
2023/04/22 16:39:50;;;;;;;;;;;26.30;33.10;;;25.24;35.74;100532.69;12255261;19;20400;-85
2023/04/22 16:43:51;;;;;;;;;;;26.20;32.50;;;25.22;36.02;100545.41;12255974;19;19929;-86
2023/04/22 16:47:53;;;;;;;;;;;26.20;32.30;;;25.00;35.53;100507.88;12249981;19;19918;-85
2023/04/22 16:51:54;;;;;;;;;;;26.10;31.60;;;25.11;35.91;100535.97;12252533;19;20268;-85
2023/04/22 16:55:56;;;;;;;;;;;26.00;29.10;;;25.12;35.46;100551.00;12249830;19;19923;-86
2023/04/22 16:59:57;;;;;;;;;;;25.90;31.60;;;24.85;35.48;100512.41;12252065;19;19974;-86
2023/04/22 17:04:00;;;;;;;;;;;25.90;32.30;;;25.00;35.46;100539.09;12254841;19;19926;-86
2023/04/22 17:08:01;;;;;;;;;;;25.90;33.40;;;24.90;35.25;100534.88;12250912;19;19931;-85
2023/04/22 17:12:03;;;;;;;;;;;25.80;32.70;;;24.79;35.54;100523.78;12252788;19;19922;-85
2023/04/22 17:16:06;;;;;;;;;;;25.80;33.10;;;24.83;35.52;100538.44;12251593;19;19922;-85
2023/04/22 17:20:08;;;;;;;;;;;25.70;33.60;;;24.76;35.36;100527.66;12247705;19;20031;-85
2023/04/22 17:24:09;;;;;;;;;;;25.60;33.80;;;24.67;35.25;100526.91;12251704;19;19926;-86
2023/04/22 17:28:12;;;;;;;;;;;25.60;33.90;;;24.64;35.46;100531.78;12243804;19;19929;-85
2023/04/22 17:32:14;;;;;;;;;;;25.50;34.00;;;24.67;35.44;100534.91;12249339;19;20335;-85
2023/04/22 17:36:16;;;;;;;;;;;25.40;34.10;;;24.49;35.54;100516.59;12250614;19;20322;-85
2023/04/22 17:40:18;;;;;;;;;;;25.40;34.40;;;24.47;35.33;100534.63;12251247;19;19951;-86
2023/04/22 17:44:19;;;;;;;;;;;25.30;34.10;;;24.35;35.11;100530.66;12251718;19;19922;-85
2023/04/22 17:48:21;;;;;;;;;;;25.20;34.50;;;24.04;35.35;100501.41;12246667;19;20358;-85
2023/04/22 17:52:23;;;;;;;;;;;25.10;34.40;;;23.88;35.57;100491.69;12250534;19;19928;-86
2023/04/22 17:56:26;;;;;;;;;;;25.00;34.40;;;24.03;35.14;100537.06;12247898;19;19946;-85
2023/04/22 18:00:27;;;;;;;;;;;24.80;34.50;;;23.80;35.55;100521.91;12248309;19;19910;-84
2023/04/22 18:04:30;;;;;;;;;;;24.70;34.50;;;23.48;35.35;100490.88;12240579;19;19925;-84
2023/04/22 18:08:32;;;;;;;;;;;24.60;34.70;;;23.63;35.24;100542.47;12242180;19;20250;-84
2023/04/22 18:12:34;;;;;;;;;;;24.40;34.70;;;23.50;35.10;100550.19;12247417;19;19934;-84